Time,TemperatureF,DewpointF,PressureIn,WindDirection,WindDirectionDegrees,WindSpeedMPH,WindSpeedGustMPH,Humidity,HourlyPrecipIn,Conditions,Clouds,dailyrainin,SoftwareType,DateUTC
2013-02-06 00:11:00,38.0,4.0,-100.00,NNW,337,2.0,6.0,24,-99.99,,,-99.99,,2013-02-06 08:11:00,
2013-02-06 00:21:00,38.0,4.0,-100.00,NNW,337,2.0,6.0,24,-99.99,,,-99.99,,2013-02-06 08:21:00,
2013-02-06 03:01:00,35.0,3.0,-100.00,WNW,282,6.0,20.0,25,-99.99,,,-99.99,,2013-02-06 11:01:00,
2013-02-06 03:11:00,35.0,3.0,-100.00,WNW,291,6.0,20.0,25,-99.99,,,-99.99,,2013-02-06 11:11:00,
2013-02-06 03:22:00,35.0,3.0,-100.00,WNW,291,6.0,20.0,25,-99.99,,,-99.99,,2013-02-06 11:22:00,
2013-02-06 04:12:00,34.0,7.0,-100.00,WNW,298,3.0,14.0,32,-99.99,,,-99.99,,2013-02-06 12:12:00,
2013-02-06 04:22:00,32.0,9.0,-100.00,WNW,288,1.0,13.0,37,-99.99,,,-99.99,,2013-02-06 12:22:00,
2013-02-06 04:32:00,31.0,7.0,-100.00,WNW,284,1.0,4.0,35,-99.99,,,-99.99,,2013-02-06 12:32:00,
2013-02-06 04:42:00,31.0,10.0,-100.00,NW,309,1.0,14.0,40,-99.99,,,-99.99,,2013-02-06 12:42:00,
2013-02-06 04:52:00,30.0,9.0,-100.00,NNW,332,2.0,14.0,41,-99.99,,,-99.99,,2013-02-06 12:52:00,
2013-02-06 05:01:00,30.0,9.0,-100.00,NNW,339,3.0,17.0,40,-99.99,,,-99.99,,2013-02-06 13:01:00,
2013-02-06 05:11:00,30.0,8.0,-100.00,NNW,344,3.0,20.0,38,-99.99,,,-99.99,,2013-02-06 13:11:00,
2013-02-06 05:21:00,31.0,9.0,-100.00,NNW,343,3.0,20.0,39,-99.99,,,-99.99,,2013-02-06 13:21:00,
2013-02-06 05:31:00,31.0,9.0,-100.00,NNW,343,3.0,20.0,39,-99.99,,,-99.99,,2013-02-06 13:31:00,
2013-02-06 05:42:00,31.0,9.0,-100.00,NNW,343,3.0,20.0,39,-99.99,,,-99.99,,2013-02-06 13:42:00,
2013-02-06 06:11:00,32.0,6.0,-100.00,NW,318,3.0,5.0,33,-99.99,,,-99.99,,2013-02-06 14:11:00,
2013-02-06 06:21:00,32.0,6.0,-100.00,NW,318,3.0,5.0,33,-99.99,,,-99.99,,2013-02-06 14:21:00,
2013-02-06 07:11:00,27.0,10.0,-100.00,West,281,0.0,2.0,49,-99.99,,,-99.99,,2013-02-06 15:11:00,
2013-02-06 07:21:00,29.0,8.0,-100.00,SW,233,1.0,13.0,40,-99.99,,,-99.99,,2013-02-06 15:21:00,
2013-02-06 07:31:00,29.0,8.0,-100.00,SW,233,1.0,13.0,40,-99.99,,,-99.99,,2013-02-06 15:31:00,
2013-02-06 07:41:00,29.0,8.0,-100.00,SW,233,1.0,13.0,40,-99.99,,,-99.99,,2013-02-06 15:41:00,
2013-02-06 07:51:00,29.0,8.0,-100.00,SW,233,1.0,13.0,40,-99.99,,,-99.99,,2013-02-06 15:51:00,
2013-02-06 10:01:00,36.0,10.0,-100.00,East,100,2.0,13.0,34,-99.99,,,-99.99,,2013-02-06 18:01:00,
2013-02-06 10:11:00,36.0,10.0,-100.00,ESE,104,2.0,13.0,34,-99.99,,,-99.99,,2013-02-06 18:11:00,
2013-02-06 10:22:00,36.0,10.0,-100.00,ESE,104,2.0,13.0,34,-99.99,,,-99.99,,2013-02-06 18:22:00,
2013-02-06 10:32:00,36.0,10.0,-100.00,ESE,104,2.0,13.0,34,-99.99,,,-99.99,,2013-02-06 18:32:00,
2013-02-06 10:41:00,36.0,10.0,-100.00,ESE,104,2.0,13.0,34,-99.99,,,-99.99,,2013-02-06 18:41:00,
2013-02-06 10:50:00,38.0,12.0,-100.00,ESE,109,3.0,12.0,34,-99.99,,,-99.99,,2013-02-06 18:50:00,
2013-02-06 11:11:00,38.0,14.0,-100.00,ESE,116,3.0,6.0,37,-99.99,,,-99.99,,2013-02-06 19:11:00,
2013-02-06 11:21:00,38.0,12.0,-100.00,ESE,109,3.0,12.0,34,-99.99,,,-99.99,,2013-02-06 19:21:00,
2013-02-06 11:31:00,38.0,12.0,-100.00,ESE,109,3.0,12.0,34,-99.99,,,-99.99,,2013-02-06 19:31:00,
2013-02-06 11:41:00,38.0,12.0,-100.00,ESE,109,3.0,12.0,34,-99.99,,,-99.99,,2013-02-06 19:41:00,
2013-02-06 14:01:00,45.0,12.0,-100.00,SE,131,2.0,5.0,26,-99.99,,,-99.99,,2013-02-06 22:01:00,
2013-02-06 14:11:00,45.0,12.0,-100.00,SE,131,2.0,5.0,26,-99.99,,,-99.99,,2013-02-06 22:11:00,
2013-02-06 14:21:00,45.0,12.0,-100.00,SE,131,2.0,5.0,26,-99.99,,,-99.99,,2013-02-06 22:21:00,
2013-02-06 14:31:00,45.0,12.0,-100.00,SE,131,2.0,5.0,26,-99.99,,,-99.99,,2013-02-06 22:31:00,
2013-02-06 14:51:00,48.0,5.0,-100.00,ESE,104,1.0,11.0,17,-99.99,,,-99.99,,2013-02-06 22:51:00,
2013-02-06 15:01:00,48.0,9.0,-100.00,ESE,112,1.0,11.0,20,-99.99,,,-99.99,,2013-02-06 23:01:00,
2013-02-06 15:11:00,49.0,5.0,-100.00,ESE,109,1.0,11.0,16,-99.99,,,-99.99,,2013-02-06 23:11:00,
2013-02-06 15:21:00,48.0,5.0,-100.00,ESE,104,1.0,11.0,17,-99.99,,,-99.99,,2013-02-06 23:21:00,
2013-02-06 15:31:00,48.0,5.0,-100.00,ESE,104,1.0,11.0,17,-99.99,,,-99.99,,2013-02-06 23:31:00,
2013-02-06 15:41:00,48.0,5.0,-100.00,ESE,104,1.0,11.0,17,-99.99,,,-99.99,,2013-02-06 23:41:00,
2013-02-06 16:20:00,44.0,6.0,-100.00,NW,312,1.0,11.0,20,-99.99,,,-99.99,,2013-02-07 00:20:00,
2013-02-06 16:42:00,44.0,6.0,-100.00,NW,305,1.0,9.0,20,-99.99,,,-99.99,,2013-02-07 00:42:00,
2013-02-06 16:52:00,44.0,6.0,-100.00,NW,312,1.0,11.0,20,-99.99,,,-99.99,,2013-02-07 00:52:00,
2013-02-06 17:01:00,44.0,6.0,-100.00,NW,312,1.0,11.0,20,-99.99,,,-99.99,,2013-02-07 01:01:00,
2013-02-06 17:11:00,44.0,6.0,-100.00,NW,312,1.0,11.0,20,-99.99,,,-99.99,,2013-02-07 01:11:00,
2013-02-06 17:42:00,43.0,6.0,-100.00,SW,224,0.0,1.0,21,-99.99,,,-99.99,,2013-02-07 01:42:00,
2013-02-06 17:52:00,44.0,6.0,-100.00,WSW,240,0.0,8.0,20,-99.99,,,-99.99,,2013-02-07 01:52:00,
2013-02-06 18:01:00,44.0,6.0,-100.00,WSW,240,0.0,8.0,20,-99.99,,,-99.99,,2013-02-07 02:01:00,
2013-02-06 21:02:00,41.0,9.0,-100.00,South,191,2.0,15.0,26,-99.99,,,-99.99,,2013-02-07 05:02:00,
2013-02-06 21:42:00,42.0,8.0,-100.00,SW,220,0.0,5.0,24,-99.99,,,-99.99,,2013-02-07 05:42:00,
2013-02-06 21:52:00,41.0,7.0,-100.00,SSW,209,0.0,8.0,24,-99.99,,,-99.99,,2013-02-07 05:52:00,
2013-02-06 22:02:00,42.0,5.0,-100.00,WNW,298,1.0,10.0,21,-99.99,,,-99.99,,2013-02-07 06:02:00,
2013-02-06 22:11:00,41.0,7.0,-100.00,SW,234,1.0,10.0,24,-99.99,,,-99.99,,2013-02-07 06:11:00,
2013-02-06 22:22:00,41.0,7.0,-100.00,SW,234,1.0,10.0,24,-99.99,,,-99.99,,2013-02-07 06:22:00,
2013-02-06 23:11:00,40.0,9.0,-100.00,West,260,1.0,14.0,27,-99.99,,,-99.99,,2013-02-07 07:11:00,
2013-02-06 23:22:00,40.0,9.0,-100.00,West,260,1.0,14.0,27,-99.99,,,-99.99,,2013-02-07 07:22:00,